createdAt,value
2019-05-12T00:00:48.394Z,98667.94
2019-05-12T00:03:19.234Z,98670.33
2019-05-12T00:19:58.840Z,98686.09
2019-05-12T00:25:23.071Z,98682.41
2019-05-12T00:30:58.057Z,98685.20
2019-05-12T00:36:30.633Z,98683.49
2019-05-12T00:39:00.927Z,98692.88
2019-05-12T00:41:50.623Z,98693.55
2019-05-12T00:44:39.927Z,98553.77
2019-05-12T00:47:29.571Z,98696.58
2019-05-12T00:49:59.875Z,98697.25
2019-05-12T00:52:30.199Z,98702.86
2019-05-12T00:55:00.562Z,98703.95
2019-05-12T00:57:30.926Z,98704.40
2019-05-12T01:00:01.324Z,98703.09
2019-05-12T01:02:31.988Z,98707.55
2019-05-12T01:05:02.409Z,98710.20
2019-05-12T01:07:32.756Z,98713.80
2019-05-12T01:10:22.089Z,98714.33
2019-05-12T01:12:52.686Z,98707.28
2019-05-12T01:15:23.030Z,98706.42
2019-05-12T01:17:53.688Z,98712.94
2019-05-12T01:20:24.949Z,98713.39
2019-05-12T01:22:57.688Z,98720.31
2019-05-12T01:25:39.345Z,98723.69
2019-05-12T01:28:48.781Z,98716.37
2019-05-12T01:31:45.683Z,98729.94
2019-05-12T01:34:38.274Z,98733.27
2019-05-12T01:37:27.975Z,98737.31
2019-05-12T01:40:00.254Z,98735.30
2019-05-12T01:42:31.915Z,98733.40
2019-05-12T01:45:02.306Z,98738.08
2019-05-12T01:47:32.588Z,98747.53
2019-05-12T01:50:02.939Z,98754.40
2019-05-12T01:52:34.755Z,98758.04
2019-05-12T01:55:24.173Z,98774.14
2019-05-12T01:58:14.759Z,98618.72
2019-05-12T02:01:04.230Z,98773.42
2019-05-12T02:03:53.804Z,98773.87
2019-05-12T02:06:43.101Z,98778.32
2019-05-12T02:09:34.357Z,98784.52
2019-05-12T02:12:05.006Z,98789.78
2019-05-12T02:17:28.197Z,98790.56
2019-05-12T02:19:58.723Z,98807.40
2019-05-12T02:22:30.862Z,98802.31
2019-05-12T02:25:01.237Z,98810.50
2019-05-12T02:27:50.807Z,98819.39
2019-05-12T02:30:41.899Z,98824.16
2019-05-12T02:33:34.791Z,98825.71
2019-05-12T02:36:26.129Z,98840.09
2019-05-12T02:39:16.353Z,98841.03
2019-05-12T02:42:05.825Z,98846.61
2019-05-12T02:44:36.269Z,98852.77
2019-05-12T02:47:25.844Z,98859.45
2019-05-12T02:50:16.519Z,98858.95
2019-05-12T02:53:06.522Z,98862.62
2019-05-12T02:55:57.668Z,98863.44
2019-05-12T02:58:29.553Z,98861.08
2019-05-12T03:01:20.190Z,98862.62
2019-05-12T03:04:10.833Z,98868.50
2019-05-12T03:06:44.611Z,98874.36
2019-05-12T03:09:15.464Z,98876.84
2019-05-12T03:11:50.368Z,98885.88
2019-05-12T03:14:20.685Z,98887.30
2019-05-12T03:16:53.957Z,98891.33
2019-05-12T03:19:25.261Z,98892.88
2019-05-12T03:22:14.817Z,98894.53
2019-05-12T03:25:05.931Z,98896.80
2019-05-12T03:27:37.387Z,98895.38
2019-05-12T03:30:29.676Z,98905.26
2019-05-12T03:33:20.423Z,98909.84
2019-05-12T03:35:54.921Z,98910.92
2019-05-12T03:38:25.030Z,98916.92
2019-05-12T03:41:14.896Z,98919.93
2019-05-12T03:43:45.397Z,98941.32
2019-05-12T03:46:16.336Z,98934.62
2019-05-12T03:49:06.027Z,98942.95
2019-05-12T03:51:36.390Z,98947.16
2019-05-12T03:54:25.738Z,98947.38
2019-05-12T03:57:07.363Z,98944.88
2019-05-12T03:59:37.746Z,98824.83
2019-05-12T04:02:08.513Z,98965.20
2019-05-12T04:04:38.896Z,98970.16
2019-05-12T04:07:28.522Z,98971.72
2019-05-12T04:10:17.863Z,98973.42
2019-05-12T04:13:07.880Z,98983.84
2019-05-12T04:15:57.225Z,98981.97
2019-05-12T04:18:46.783Z,98982.43
2019-05-12T04:21:36.138Z,98989.84
2019-05-12T04:24:25.797Z,98992.63
2019-05-12T04:26:56.081Z,99001.00
2019-05-12T04:29:28.706Z,99007.41
2019-05-12T04:32:39.634Z,99001.16
2019-05-12T04:35:28.959Z,99008.08
2019-05-12T04:38:18.576Z,99020.21
2019-05-12T04:40:48.902Z,99029.33
2019-05-12T04:43:38.508Z,99030.23
2019-05-12T04:46:27.799Z,99037.70
2019-05-12T04:49:18.767Z,99033.23
2019-05-12T04:51:49.059Z,99035.21
2019-05-12T04:54:38.657Z,99034.53
2019-05-12T04:57:09.343Z,99038.11
2019-05-12T04:59:58.957Z,99052.22
2019-05-12T05:02:48.264Z,99049.02
2019-05-12T05:05:18.627Z,99055.54
2019-05-12T05:08:08.045Z,99063.87
2019-05-12T05:10:57.411Z,99064.31
2019-05-12T05:13:46.997Z,99066.46
2019-05-12T05:16:36.576Z,99074.36
2019-05-12T05:19:26.168Z,98966.30
2019-05-12T05:21:56.481Z,99076.86
2019-05-12T05:24:27.716Z,99088.84
2019-05-12T05:26:58.042Z,99093.94
2019-05-12T05:29:47.372Z,99093.70
2019-05-12T05:32:17.755Z,99096.19
2019-05-12T05:35:08.748Z,99099.34
2019-05-12T05:37:58.069Z,99103.66
2019-05-12T05:40:47.715Z,99112.98
2019-05-12T05:43:37.092Z,99109.28
2019-05-12T05:46:26.661Z,99112.53
2019-05-12T05:49:16.021Z,99115.86
2019-05-12T05:52:06.008Z,99122.27
2019-05-12T05:54:55.345Z,99126.45
2019-05-12T05:58:08.568Z,98998.92
2019-05-12T06:00:39.445Z,99015.84
2019-05-12T06:03:30.762Z,99127.34
2019-05-12T06:06:20.233Z,99128.44
2019-05-12T06:09:10.918Z,99139.20
2019-05-12T06:12:05.265Z,99141.32
2019-05-12T06:14:34.252Z,99140.02
2019-05-12T06:17:23.664Z,99151.02
2019-05-12T06:20:13.671Z,99153.63
2019-05-12T06:23:04.298Z,99159.83
2019-05-12T06:25:46.404Z,99153.63
2019-05-12T06:28:31.061Z,99165.52
2019-05-12T06:31:19.070Z,99171.65
2019-05-12T06:34:15.206Z,99176.07
2019-05-12T06:37:05.108Z,99175.97
2019-05-12T06:39:34.362Z,99185.98
2019-05-12T06:42:12.375Z,99188.72
2019-05-12T06:44:39.286Z,99186.28
2019-05-12T06:47:28.586Z,99185.77
2019-05-12T06:50:18.186Z,99188.78
2019-05-12T06:53:07.732Z,99192.75
2019-05-12T06:55:39.450Z,99197.34
2019-05-12T07:01:39.076Z,99211.91
2019-05-12T07:04:28.405Z,99209.96
2019-05-12T07:07:00.671Z,99221.16
2019-05-12T07:10:15.242Z,99215.91
2019-05-12T07:13:05.451Z,99221.05
2019-05-12T07:15:54.466Z,99223.30
2019-05-12T07:18:43.841Z,99228.89
2019-05-12T07:21:24.891Z,99230.23
2019-05-12T07:24:14.214Z,99228.75
2019-05-12T07:26:47.959Z,99247.67
2019-05-12T07:29:17.254Z,99242.45
2019-05-12T07:32:34.388Z,99242.56
2019-05-12T07:35:05.082Z,99244.80
2019-05-12T07:37:56.770Z,99247.47
2019-05-12T07:40:30.047Z,99255.50
2019-05-12T07:43:33.829Z,99262.50
2019-05-12T07:48:58.980Z,99276.88
2019-05-12T07:51:38.284Z,99277.18
2019-05-12T07:54:04.049Z,99275.27
2019-05-12T07:56:54.038Z,99275.55
2019-05-12T07:59:26.633Z,99271.91
2019-05-12T08:01:58.898Z,99278.14
2019-05-12T08:04:48.424Z,99287.63
2019-05-12T08:07:19.867Z,99290.11
2019-05-12T08:09:54.464Z,99289.05
2019-05-12T08:12:30.308Z,99292.33
2019-05-12T08:15:19.636Z,99293.06
2019-05-12T08:20:43.560Z,99290.86
2019-05-12T08:23:14.294Z,99297.07
2019-05-12T08:25:44.953Z,99298.89
2019-05-12T08:28:34.679Z,99303.94
2019-05-12T08:30:57.339Z,99307.52
2019-05-12T08:33:34.760Z,99301.20
2019-05-12T08:36:24.998Z,99298.36
2019-05-12T08:38:57.420Z,99299.67
2019-05-12T08:41:29.167Z,99313.55
2019-05-12T08:44:24.827Z,99307.98
2019-05-12T08:47:12.795Z,99308.02
2019-05-12T08:49:51.151Z,99308.15
2019-05-12T08:52:15.870Z,99312.19
2019-05-12T08:55:05.557Z,99310.66
2019-05-12T08:58:00.758Z,99309.16
2019-05-12T09:00:54.863Z,99313.94
2019-05-12T09:03:30.099Z,99320.70
2019-05-12T09:06:19.694Z,99324.05
2019-05-12T09:08:49.638Z,99319.83
2019-05-12T09:11:20.062Z,99333.09
2019-05-12T09:14:15.572Z,99329.45
2019-05-12T09:17:07.492Z,99342.70
2019-05-12T09:20:13.488Z,99339.28
2019-05-12T09:22:52.715Z,99265.47
2019-05-12T09:25:25.750Z,99347.19
2019-05-12T09:27:57.032Z,99358.36
2019-05-12T09:30:49.532Z,99361.37
2019-05-12T09:34:17.171Z,99371.34
2019-05-12T09:37:06.808Z,99375.80
2019-05-12T09:39:42.849Z,99369.56
2019-05-12T09:42:33.404Z,99371.21
2019-05-12T09:45:10.123Z,99378.95
2019-05-12T09:48:39.025Z,99372.02
2019-05-12T09:51:08.003Z,99375.91
2019-05-12T09:53:42.744Z,99388.27
2019-05-12T09:56:14.223Z,99377.74
2019-05-12T09:59:01.831Z,99387.89
2019-05-12T10:01:37.408Z,99400.23
2019-05-12T10:04:03.458Z,99397.75
2019-05-12T10:06:35.437Z,99385.40
2019-05-12T10:09:24.917Z,99386.83
2019-05-12T10:12:00.856Z,99390.73
2019-05-12T10:14:48.133Z,99385.05
2019-05-12T10:17:43.271Z,99383.87
2019-05-12T10:26:11.619Z,99389.08
2019-05-12T10:29:16.492Z,99394.66
2019-05-12T10:31:39.388Z,99402.34
2019-05-12T10:34:37.475Z,99390.19
2019-05-12T10:37:03.780Z,99406.86
2019-05-12T10:40:13.908Z,99395.98
2019-05-12T10:42:47.790Z,99382.50
2019-05-12T10:45:37.372Z,99382.08
2019-05-12T10:48:26.723Z,99383.95
2019-05-12T10:51:16.110Z,99395.63
2019-05-12T10:53:48.714Z,99399.91
2019-05-12T10:59:48.484Z,99396.03
2019-05-12T11:02:20.318Z,99400.96
2019-05-12T11:05:21.235Z,99403.97
2019-05-12T11:08:11.054Z,99394.66
2019-05-12T11:10:50.352Z,99399.61
2019-05-12T11:13:18.303Z,99404.46
2019-05-12T11:15:51.047Z,99393.61
2019-05-12T11:18:25.996Z,99402.25
2019-05-12T11:21:00.365Z,99402.39
2019-05-12T11:23:31.616Z,99405.08
2019-05-12T11:26:14.241Z,99415.67
2019-05-12T11:28:59.152Z,99407.95
2019-05-12T11:31:44.157Z,99412.64
2019-05-12T11:37:10.523Z,99412.45
2019-05-12T11:39:47.531Z,99417.69
2019-05-12T11:42:36.419Z,99430.39
2019-05-12T11:45:28.462Z,99417.40
2019-05-12T11:48:34.531Z,99421.72
2019-05-12T11:51:08.081Z,99420.30
2019-05-12T11:54:03.651Z,99413.59
2019-05-12T11:56:55.732Z,99417.94
2019-05-12T11:59:28.945Z,99431.55
2019-05-12T12:01:59.894Z,99424.92
2019-05-12T12:04:49.819Z,99430.40
2019-05-12T12:07:50.656Z,99439.01
2019-05-12T12:10:14.059Z,99439.09
2019-05-12T12:13:03.933Z,99430.55
2019-05-12T12:19:05.870Z,99440.98
2019-05-12T12:21:40.313Z,99443.80
2019-05-12T12:24:31.658Z,99452.98
2019-05-12T12:27:03.858Z,99459.71
2019-05-12T12:29:35.128Z,99447.08
2019-05-12T12:32:44.821Z,99444.54
2019-05-12T12:38:44.130Z,99454.84
2019-05-12T12:41:35.498Z,99459.34
2019-05-12T12:47:15.906Z,99476.94
2019-05-12T12:50:06.760Z,99475.22
2019-05-12T12:53:01.967Z,99466.89
2019-05-12T12:55:58.324Z,99468.20
2019-05-12T12:58:44.608Z,99474.92
2019-05-12T13:01:27.393Z,99468.80
2019-05-12T13:04:14.806Z,99474.34
2019-05-12T13:07:04.754Z,99467.97
2019-05-12T13:10:03.607Z,99475.98
2019-05-12T13:12:26.653Z,99476.27
2019-05-12T13:18:33.886Z,99481.75
2019-05-12T13:21:04.613Z,99481.41
2019-05-12T13:23:41.381Z,99480.97
2019-05-12T13:26:13.442Z,99476.02
2019-05-12T13:28:45.543Z,99468.58
2019-05-12T13:31:18.127Z,99464.00
2019-05-12T13:37:14.364Z,99337.19
2019-05-12T13:39:41.374Z,99484.22
2019-05-12T13:42:35.911Z,99470.74
2019-05-12T13:45:04.799Z,99468.91
2019-05-12T13:47:40.048Z,99470.44
2019-05-12T13:50:21.400Z,99476.63
2019-05-12T13:53:10.297Z,99475.59
2019-05-12T13:55:49.511Z,99476.56
2019-05-12T13:58:21.059Z,99486.10
2019-05-12T14:01:10.537Z,99483.58
2019-05-12T14:06:37.954Z,99475.69
2019-05-12T14:09:27.241Z,99477.27
2019-05-12T14:12:16.938Z,99360.55
2019-05-12T14:14:47.247Z,99495.59
2019-05-12T14:17:17.602Z,99492.06
2019-05-12T14:20:26.107Z,99486.25
2019-05-12T14:22:53.948Z,99489.42
2019-05-12T14:25:45.610Z,99495.09
2019-05-12T14:28:39.633Z,99491.73
2019-05-12T14:31:07.023Z,99499.58
2019-05-12T14:33:39.388Z,99499.02
2019-05-12T14:36:32.033Z,99500.58
2019-05-12T14:39:23.976Z,99498.14
2019-05-12T14:42:13.655Z,99485.56
2019-05-12T14:45:04.723Z,99483.25
2019-05-12T14:47:38.898Z,99351.97
2019-05-12T14:50:29.837Z,99487.98
2019-05-12T14:53:19.487Z,99481.97
2019-05-12T14:56:08.849Z,99482.41
2019-05-12T14:59:17.141Z,99480.77
2019-05-12T15:01:58.948Z,99484.97
2019-05-12T15:05:10.592Z,99509.50
2019-05-12T15:07:59.868Z,99499.33
2019-05-12T15:10:28.328Z,99510.16
2019-05-12T15:12:58.876Z,99500.07
2019-05-12T15:15:50.054Z,99505.98
2019-05-12T15:18:46.754Z,99506.64
2019-05-12T15:24:15.503Z,99511.42
2019-05-12T15:26:43.413Z,99528.99
2019-05-12T15:35:40.416Z,99520.50
2019-05-12T15:38:34.080Z,99528.23
2019-05-12T15:41:16.849Z,99511.05
2019-05-12T15:43:56.745Z,99505.18
2019-05-12T15:46:46.744Z,99505.31
2019-05-12T15:49:36.508Z,99504.59
2019-05-12T15:52:29.820Z,99506.21
2019-05-12T15:55:18.553Z,99510.34
2019-05-12T15:58:10.034Z,99510.70
2019-05-12T16:01:04.552Z,99507.22
2019-05-12T16:07:09.253Z,99499.91
2019-05-12T16:10:08.041Z,99496.41
2019-05-12T16:13:00.671Z,99493.11
2019-05-12T16:18:31.429Z,99507.59
2019-05-12T16:24:34.039Z,99470.77
2019-05-12T16:27:44.267Z,99504.75
2019-05-12T16:30:58.850Z,99501.75
2019-05-12T16:33:29.574Z,99507.14
2019-05-12T16:39:04.266Z,99513.42
2019-05-12T16:41:48.417Z,99510.57
2019-05-12T16:44:43.834Z,99507.31
2019-05-12T16:47:35.408Z,99512.28
2019-05-12T16:50:31.527Z,99509.06
2019-05-12T16:56:33.930Z,99530.75
2019-05-12T16:59:40.596Z,99518.27
2019-05-12T17:02:19.669Z,99515.36
2019-05-12T17:05:17.735Z,99524.01
2019-05-12T17:07:50.434Z,99520.27
2019-05-12T17:10:21.281Z,99508.75
2019-05-12T17:13:13.851Z,99529.82
2019-05-12T17:16:05.544Z,99526.72
2019-05-12T17:19:15.475Z,99527.84
2019-05-12T17:22:25.266Z,99533.80
2019-05-12T17:25:18.771Z,99539.03
2019-05-12T17:28:03.793Z,99530.81
2019-05-12T17:31:16.816Z,99532.79
2019-05-12T17:33:54.356Z,99532.11
2019-05-12T17:36:33.783Z,99541.93
2019-05-12T17:39:24.117Z,99535.66
2019-05-12T17:41:56.342Z,99421.07
2019-05-12T17:44:45.813Z,99541.88
2019-05-12T17:47:21.198Z,99547.36
2019-05-12T17:50:00.544Z,99549.80
2019-05-12T17:52:56.939Z,99556.77
2019-05-12T17:55:26.421Z,99558.61
2019-05-12T17:58:16.115Z,99562.41
2019-05-12T18:00:56.754Z,99561.80
2019-05-12T18:06:44.222Z,99568.77
2019-05-12T18:12:49.753Z,99569.55
2019-05-12T18:15:39.280Z,99579.54
2019-05-12T18:18:37.255Z,99586.69
2019-05-12T18:21:04.620Z,99578.98
2019-05-12T18:23:39.019Z,99588.33
2019-05-12T18:26:14.868Z,99597.00
2019-05-12T18:28:44.289Z,99594.86
2019-05-12T18:31:34.052Z,99602.80
2019-05-12T18:34:22.164Z,99602.77
2019-05-12T18:37:01.628Z,99599.86
2019-05-12T18:39:54.592Z,99606.02
2019-05-12T18:43:03.907Z,99609.53
2019-05-12T18:46:20.740Z,99609.82
2019-05-12T18:49:12.718Z,99610.77
2019-05-12T18:51:49.128Z,99613.94
2019-05-12T18:54:20.255Z,99616.25
2019-05-12T19:03:10.065Z,99621.80
2019-05-12T19:06:03.335Z,99630.34
2019-05-12T19:08:35.807Z,99630.01
2019-05-12T19:11:18.814Z,99626.27
2019-05-12T19:20:05.216Z,99629.78
2019-05-12T19:22:59.924Z,99631.98
2019-05-12T19:26:06.841Z,99640.45
2019-05-12T19:28:31.311Z,99638.97
2019-05-12T19:31:14.216Z,99641.40
2019-05-12T19:36:58.285Z,99644.75
2019-05-12T19:39:45.761Z,99651.08
2019-05-12T19:49:00.301Z,99658.63
2019-05-12T19:51:30.840Z,99654.92
2019-05-12T19:54:25.541Z,99656.73
2019-05-12T19:56:56.765Z,99654.45
2019-05-12T19:59:31.133Z,99659.52
2019-05-12T20:02:23.595Z,99662.24
2019-05-12T20:05:34.404Z,99660.16
2019-05-12T20:08:27.688Z,99662.09
2019-05-12T20:11:20.126Z,99668.00
2019-05-12T20:14:27.867Z,99663.97
2019-05-12T20:17:00.788Z,99669.44
2019-05-12T20:19:53.942Z,99673.61
2019-05-12T20:25:34.193Z,99667.64
2019-05-12T20:28:24.694Z,99675.91
2019-05-12T20:34:10.499Z,99684.40
2019-05-12T20:36:49.183Z,99684.51
2019-05-12T20:39:22.398Z,99677.45
2019-05-12T20:42:14.231Z,99682.30
2019-05-12T20:44:44.743Z,99686.11
2019-05-12T20:47:39.123Z,99688.77
2019-05-12T20:50:11.781Z,99685.51
2019-05-12T20:53:04.002Z,99689.41
2019-05-12T20:55:54.771Z,99685.30
2019-05-12T20:58:46.562Z,99689.50
2019-05-12T21:04:39.383Z,99696.89
2019-05-12T21:10:20.012Z,99700.20
2019-05-12T21:12:54.357Z,99696.66
2019-05-12T21:15:45.959Z,99697.02
2019-05-12T21:18:47.815Z,99693.69
2019-05-12T21:21:14.311Z,99692.77
2019-05-12T21:23:53.504Z,99693.16
2019-05-12T21:26:17.908Z,99693.83
2019-05-12T21:28:49.502Z,99694.47
2019-05-12T21:31:39.414Z,99694.20
2019-05-12T21:37:25.422Z,99702.76
2019-05-12T21:41:02.022Z,99698.93
2019-05-12T21:42:53.585Z,99699.64
2019-05-12T21:45:30.719Z,99698.13
2019-05-12T21:47:58.421Z,99704.66
2019-05-12T21:50:37.930Z,99691.44
2019-05-12T21:53:44.201Z,99699.27
2019-05-12T21:59:29.066Z,99697.04
2019-05-12T22:05:21.977Z,99710.19
2019-05-12T22:07:45.640Z,99704.50
2019-05-12T22:10:38.011Z,99710.87
2019-05-12T22:16:43.740Z,99710.64
2019-05-12T22:19:31.482Z,99715.12
2019-05-12T22:22:08.136Z,99717.08
2019-05-12T22:24:50.425Z,99717.21
2019-05-12T22:27:32.259Z,99714.62
2019-05-12T22:30:04.424Z,99644.09
2019-05-12T22:32:59.515Z,99730.39
2019-05-12T22:36:14.000Z,99735.63
2019-05-12T22:38:44.556Z,99731.91
2019-05-12T22:41:17.829Z,99741.39
2019-05-12T22:43:53.843Z,99737.75
2019-05-12T22:46:45.463Z,99745.48
2019-05-12T22:49:57.000Z,99743.66
2019-05-12T22:52:26.018Z,99746.67
2019-05-12T22:54:59.400Z,99748.30
2019-05-12T22:57:38.260Z,99748.46
2019-05-12T23:02:49.559Z,99753.27
2019-05-12T23:06:01.522Z,99751.16
2019-05-12T23:08:51.066Z,99752.90
2019-05-12T23:11:41.717Z,99747.32
2019-05-12T23:14:54.167Z,99742.12
2019-05-12T23:17:45.258Z,99746.12
2019-05-12T23:20:13.821Z,99743.22
2019-05-12T23:23:09.142Z,99749.78
2019-05-12T23:26:00.429Z,99756.22
2019-05-12T23:31:30.015Z,99746.80
2019-05-12T23:37:06.742Z,99738.95
2019-05-12T23:39:39.911Z,99744.45
2019-05-12T23:42:53.560Z,99748.55
2019-05-12T23:45:24.344Z,99745.95
2019-05-12T23:47:56.210Z,99743.84
2019-05-12T23:50:26.565Z,99739.58
2019-05-12T23:52:57.044Z,99745.81
2019-05-12T23:55:29.463Z,99748.86
2019-05-12T23:58:19.817Z,99748.61
